Time;durP1;ratioP1;P1;durP2;ratioP2;P2;SDS_P1;SDS_P2;PMS_P1;PMS_P2;Temp;Humidity;BMP_temperature;BMP_pressure;BME280_temperature;BME280_humidity;BME280_pressure;Samples;Min_cycle;Max_cycle;Signal;HPM_P1;HPM_P2
2022/10/23 00:01:43;;;;;;;7.87;7.37;;;;;;;20.47;39.88;95539.00;6159822;28;103657;-80
2022/10/23 00:04:46;;;;;;;7.90;7.30;;;;;;;20.45;40.08;95525.19;6166003;28;106039;-78
2022/10/23 00:07:50;;;;;;;7.40;6.90;;;;;;;20.47;39.95;95543.53;6166087;28;103317;-79
2022/10/23 00:10:54;;;;;;;7.00;6.50;;;;;;;20.47;39.80;95524.91;6166641;28;103227;-78
2022/10/23 00:14:00;;;;;;;8.27;7.67;;;;;;;20.47;39.81;95528.38;6158573;28;105416;-79
2022/10/23 00:17:03;;;;;;;7.40;6.80;;;;;;;20.46;40.13;95528.66;6166882;28;104060;-78
2022/10/23 00:20:08;;;;;;;7.47;6.87;;;;;;;20.45;40.07;95527.06;6165414;28;103808;-78
2022/10/23 00:23:11;;;;;;;7.47;6.97;;;;;;;20.45;39.82;95527.06;6166534;28;103355;-78
2022/10/23 00:26:14;;;;;;;8.30;7.60;;;;;;;20.45;39.85;95529.72;6157243;28;105239;-79
2022/10/23 00:29:19;;;;;;;7.60;7.00;;;;;;;20.43;40.11;95508.75;6166601;28;103304;-78
2022/10/23 00:32:22;;;;;;;7.03;6.43;;;;;;;20.44;40.20;95498.91;6165875;28;103023;-78
2022/10/23 00:35:25;;;;;;;8.23;7.60;;;;;;;20.44;40.10;95526.28;6160501;28;103665;-78
2022/10/23 00:38:28;;;;;;;8.10;7.50;;;;;;;20.45;40.11;95527.06;6161647;28;102862;-78
2022/10/23 00:41:32;;;;;;;7.83;7.23;;;;;;;20.42;39.96;95525.78;6165675;28;104140;-79
2022/10/23 00:45:08;;;;;;;7.47;6.87;;;;;;;20.44;40.04;95533.47;6165956;28;105409;-77
2022/10/23 00:48:14;;;;;;;7.40;6.80;;;;;;;20.45;39.81;95519.09;6141849;28;105257;-78
2022/10/23 00:51:17;;;;;;;7.53;6.93;;;;;;;20.42;39.90;95512.47;6165230;28;103120;-78
2022/10/23 00:54:25;;;;;;;7.70;7.10;;;;;;;20.42;39.91;95515.13;6165821;28;102661;-78
2022/10/23 00:57:28;;;;;;;7.30;6.80;;;;;;;20.44;39.80;95506.88;6164607;28;103575;-79
2022/10/23 01:00:43;;;;;;;6.87;6.37;;;;;;;20.43;40.09;95503.44;6157477;28;103248;-78
2022/10/23 01:03:48;;;;;;;7.20;6.60;;;;;;;20.43;40.08;95510.63;6164696;28;103049;-78
2022/10/23 01:07:03;;;;;;;7.83;7.23;;;;;;;20.43;40.06;95538.00;6165155;28;103776;-78
2022/10/23 01:10:13;;;;;;;7.07;6.57;;;;;;;20.40;40.03;95545.75;6156388;28;103202;-79
2022/10/23 01:13:26;;;;;;;6.93;6.43;;;;;;;20.44;40.04;95533.47;6165810;28;104079;-78
2022/10/23 01:16:37;;;;;;;7.50;7.00;;;;;;;20.42;39.92;95547.03;6165209;28;106666;-79
2022/10/23 01:19:55;;;;;;;7.30;6.80;;;;;;;20.42;40.14;95552.34;6164580;28;103230;-78
2022/10/23 01:23:30;;;;;;;7.30;6.70;;;;;;;20.42;39.93;95576.28;6156455;28;103005;-79
2022/10/23 01:26:44;;;;;;;7.53;7.03;;;;;;;20.42;39.83;95586.13;6164452;28;106386;-78
2022/10/23 01:29:57;;;;;;;6.83;6.33;;;;;;;20.42;40.13;95589.56;6164191;28;105431;-78
2022/10/23 01:33:07;;;;;;;7.27;6.70;;;;;;;20.41;39.83;95580.00;6155771;28;104747;-78
2022/10/23 01:36:14;;;;;;;8.23;7.63;;;;;;;20.42;40.02;95594.09;6165201;28;105327;-78
2022/10/23 01:39:20;;;;;;;7.00;6.40;;;;;;;20.42;39.93;95604.72;6165079;28;103687;-79
2022/10/23 01:42:29;;;;;;;7.40;6.83;;;;;;;20.39;40.08;95613.25;6164963;28;103868;-79
2022/10/23 01:45:39;;;;;;;7.50;6.90;;;;;;;20.40;40.02;95607.66;6155854;28;106161;-78
2022/10/23 01:48:48;;;;;;;7.17;6.67;;;;;;;20.38;40.14;95614.34;6163957;28;103189;-79
2022/10/23 01:51:54;;;;;;;7.70;7.10;;;;;;;20.38;39.98;95603.72;6165331;28;104784;-79
2022/10/23 01:55:01;;;;;;;7.67;7.07;;;;;;;20.38;39.98;95612.47;6160395;28;102831;-79
2022/10/23 01:58:07;;;;;;;7.33;6.73;;;;;;;20.36;40.00;95585.38;6160009;28;104751;-79
2022/10/23 02:01:13;;;;;;;7.10;6.60;;;;;;;20.32;39.99;95574.50;6164585;28;102862;-80
2022/10/23 02:04:23;;;;;;;7.93;7.33;;;;;;;20.36;40.15;95589.91;6164548;28;107163;-80
2022/10/23 02:07:26;;;;;;;7.20;6.70;;;;;;;20.34;40.10;95592.84;6155776;28;103327;-80
2022/10/23 02:10:34;;;;;;;7.83;7.23;;;;;;;20.36;40.06;95596.03;6164219;28;104188;-79
2022/10/23 02:13:44;;;;;;;7.43;6.93;;;;;;;20.35;40.29;95594.44;6164337;28;106321;-79
2022/10/23 02:16:51;;;;;;;7.93;7.23;;;;;;;20.36;40.01;95600.53;6164330;28;104752;-79
2022/10/23 02:20:00;;;;;;;6.80;6.30;;;;;;;20.34;40.01;95589.41;6155201;28;103162;-79
2022/10/23 02:23:16;;;;;;;6.97;6.37;;;;;;;20.35;40.23;95589.13;6164718;28;105977;-80
2022/10/23 02:26:24;;;;;;;7.30;6.70;;;;;;;20.35;40.25;95583.00;6163770;28;104900;-80
2022/10/23 02:29:33;;;;;;;7.47;6.87;;;;;;;20.34;39.96;95586.75;6156216;28;103571;-80
2022/10/23 02:32:44;;;;;;;8.10;7.50;;;;;;;20.34;40.04;95586.75;6163195;28;105527;-79
2022/10/23 02:35:48;;;;;;;7.63;6.93;;;;;;;20.33;39.99;95588.59;6164308;28;103303;-79
2022/10/23 02:38:52;;;;;;;7.17;6.67;;;;;;;20.32;39.98;95602.94;6164191;28;106393;-80
2022/10/23 02:42:02;;;;;;;7.33;6.80;;;;;;;20.33;40.14;95607.19;6155994;28;102864;-79
2022/10/23 02:45:12;;;;;;;7.23;6.73;;;;;;;20.34;40.15;95621.28;6163731;28;104705;-80
2022/10/23 02:48:22;;;;;;;7.50;6.90;;;;;;;20.34;40.17;95621.28;6164057;28;105980;-79
2022/10/23 02:51:35;;;;;;;7.57;6.97;;;;;;;20.33;39.95;95612.50;6159789;28;104409;-80
2022/10/23 02:54:50;;;;;;;8.00;7.40;;;;;;;20.32;40.14;95606.41;6159027;28;103403;-79
2022/10/23 02:58:02;;;;;;;7.10;6.60;;;;;;;20.32;40.05;95606.41;6162657;28;104472;-80
2022/10/23 03:01:11;;;;;;;6.77;6.27;;;;;;;20.34;39.91;95605.34;6164211;28;104337;-79
2022/10/23 03:04:17;;;;;;;7.90;7.20;;;;;;;20.32;40.11;95603.72;6155113;28;106684;-79
2022/10/23 03:07:21;;;;;;;7.33;6.80;;;;;;;20.32;40.17;95614.38;6163379;28;103305;-80
2022/10/23 03:10:24;;;;;;;7.63;7.07;;;;;;;20.33;39.99;95628.44;6163133;28;103662;-80
2022/10/23 03:13:27;;;;;;;6.93;6.43;;;;;;;20.31;40.06;95631.38;6164047;28;106169;-80
2022/10/23 03:16:30;;;;;;;7.40;6.80;;;;;;;20.30;40.25;95639.63;6155139;28;103485;-78
2022/10/23 03:19:35;;;;;;;7.00;6.50;;;;;;;20.32;40.06;95643.59;6163723;28;105507;-79
2022/10/23 03:22:38;;;;;;;7.00;6.50;;;;;;;20.31;40.09;95644.69;6163497;28;103487;-79
2022/10/23 03:25:42;;;;;;;7.60;7.00;;;;;;;20.27;40.39;95637.53;6159911;28;107304;-79
2022/10/23 03:28:45;;;;;;;7.30;6.77;;;;;;;20.30;40.25;95647.63;6160390;28;103886;-80
2022/10/23 03:31:48;;;;;;;7.70;7.10;;;;;;;20.29;39.99;95646.81;6163205;28;103578;-79
2022/10/23 03:34:53;;;;;;;7.60;7.00;;;;;;;20.29;40.18;95644.16;6163253;28;103337;-79
2022/10/23 03:37:56;;;;;;;7.20;6.70;;;;;;;20.30;39.95;95643.09;6154332;28;103239;-78
2022/10/23 03:40:59;;;;;;;7.30;6.80;;;;;;;20.27;40.18;95641.00;6162961;28;102994;-78
2022/10/23 03:44:02;;;;;;;7.10;6.57;;;;;;;20.27;40.34;95642.88;6163135;28;104041;-78
2022/10/23 03:47:08;;;;;;;6.67;6.17;;;;;;;20.27;39.79;95643.66;6162691;28;102878;-78
2022/10/23 03:50:13;;;;;;;7.07;6.57;;;;;;;20.29;40.25;95651.34;6154147;28;106355;-79
2022/10/23 03:53:16;;;;;;;6.67;6.17;;;;;;;20.28;39.88;95647.09;6162565;28;102944;-79
2022/10/23 03:56:20;;;;;;;7.13;6.63;;;;;;;20.27;40.03;95650.84;6162836;28;103207;-78
2022/10/23 03:59:23;;;;;;;7.37;6.87;;;;;;;20.28;40.09;95655.88;6161189;28;103528;-80
2022/10/23 04:02:27;;;;;;;6.97;6.47;;;;;;;20.27;40.03;95651.63;6157007;28;104429;-79
2022/10/23 04:05:33;;;;;;;7.60;6.90;;;;;;;20.28;40.08;95661.19;6161469;28;103348;-79
2022/10/23 04:08:36;;;;;;;7.60;7.00;;;;;;;20.26;40.15;95660.69;6162315;28;103720;-79
2022/10/23 04:11:40;;;;;;;7.30;6.80;;;;;;;20.26;40.00;95660.69;6159095;28;104220;-79
2022/10/23 04:14:43;;;;;;;7.43;6.83;;;;;;;20.26;39.96;95659.88;6166046;28;105415;-79
2022/10/23 04:17:46;;;;;;;7.33;6.83;;;;;;;20.27;40.51;95670.22;6166371;28;106683;-78
2022/10/23 04:20:52;;;;;;;7.10;6.60;;;;;;;20.22;40.02;95669.47;6165872;28;103519;-78
2022/10/23 04:23:55;;;;;;;7.80;7.10;;;;;;;20.26;40.04;95676.63;6156866;28;103080;-79
2022/10/23 04:26:58;;;;;;;7.50;6.90;;;;;;;20.26;40.01;95681.13;6166318;28;103204;-78
2022/10/23 04:30:02;;;;;;;7.00;6.50;;;;;;;20.24;39.97;95676.09;6165718;28;103039;-78
2022/10/23 04:33:05;;;;;;;7.00;6.50;;;;;;;20.24;40.15;95684.06;6165151;28;103031;-78
2022/10/23 04:36:10;;;;;;;8.17;7.47;;;;;;;20.24;40.15;95678.75;6157245;28;103057;-78
2022/10/23 04:39:13;;;;;;;8.10;7.50;;;;;;;20.23;39.98;95677.16;6165579;28;103038;-78
2022/10/23 04:42:16;;;;;;;7.63;7.00;;;;;;;20.24;40.07;95683.25;6165800;28;103122;-78
2022/10/23 04:45:20;;;;;;;7.00;6.50;;;;;;;20.22;39.80;95678.22;6160929;28;103238;-79
2022/10/23 04:48:23;;;;;;;7.77;7.17;;;;;;;20.22;40.38;95677.44;6161249;28;103370;-79
2022/10/23 04:51:32;;;;;;;7.10;6.60;;;;;;;20.20;40.15;95677.72;6165276;28;103042;-80
2022/10/23 04:54:37;;;;;;;7.23;6.73;;;;;;;20.22;40.09;95677.44;6164956;28;107157;-79
2022/10/23 04:57:40;;;;;;;7.30;6.77;;;;;;;20.22;40.14;95674.78;6157426;28;105502;-80
2022/10/23 05:00:43;;;;;;;6.77;6.27;;;;;;;20.22;40.20;95677.44;6164751;28;103251;-79
2022/10/23 05:03:47;;;;;;;6.80;6.30;;;;;;;20.14;40.12;95667.38;6165770;28;106112;-78
2022/10/23 05:06:51;;;;;;;7.10;6.60;;;;;;;20.21;40.32;95684.59;6164312;28;105522;-78
2022/10/23 05:09:56;;;;;;;6.97;6.33;;;;;;;20.21;39.88;95676.63;6156355;28;104714;-79
2022/10/23 05:13:00;;;;;;;7.20;6.70;;;;;;;20.22;39.68;95686.19;6165999;28;105325;-79
2022/10/23 05:16:03;;;;;;;7.30;6.70;;;;;;;20.22;40.10;95686.19;6164968;28;102826;-80
2022/10/23 05:19:10;;;;;;;6.57;6.07;;;;;;;20.23;40.12;95690.44;6161252;28;103418;-80
2022/10/23 05:22:15;;;;;;;7.97;7.27;;;;;;;20.20;40.05;95691.00;6160165;28;103323;-80
2022/10/23 05:25:19;;;;;;;6.80;6.30;;;;;;;20.16;40.26;95679.31;6164964;28;103048;-78
2022/10/23 05:28:22;;;;;;;7.33;6.73;;;;;;;20.23;40.03;95695.75;6164690;28;103042;-78
2022/10/23 05:31:25;;;;;;;7.43;6.83;;;;;;;20.23;40.23;95692.31;6156626;28;104272;-79
2022/10/23 05:34:31;;;;;;;6.50;6.00;;;;;;;20.24;40.08;95709.84;6164523;28;103867;-78
2022/10/23 05:37:38;;;;;;;7.00;6.50;;;;;;;20.23;40.19;95713.56;6163971;28;105478;-79
2022/10/23 05:40:41;;;;;;;7.83;7.13;;;;;;;20.23;40.16;95719.66;6163992;28;103586;-78
2022/10/23 05:43:45;;;;;;;7.40;6.90;;;;;;;20.26;40.03;95728.97;6155191;28;103205;-79
2022/10/23 05:46:50;;;;;;;7.13;6.63;;;;;;;20.26;40.06;95735.09;6164458;28;105938;-78
2022/10/23 05:49:53;;;;;;;6.33;5.90;;;;;;;20.29;40.01;95731.06;6164344;28;103013;-79
2022/10/23 05:52:58;;;;;;;7.63;7.03;;;;;;;20.28;39.92;95754.19;6163190;28;105766;-78
2022/10/23 05:56:05;;;;;;;6.80;6.30;;;;;;;20.30;40.05;95751.28;6159530;28;103187;-80
2022/10/23 05:59:09;;;;;;;6.70;6.20;;;;;;;20.28;40.06;95756.84;6163985;28;104107;-80
2022/10/23 06:02:12;;;;;;;6.63;6.23;;;;;;;20.28;39.83;95756.84;6163845;28;103347;-79
2022/10/23 06:05:16;;;;;;;7.00;6.50;;;;;;;20.27;39.84;95757.94;6156385;28;103139;-79
2022/10/23 06:08:20;;;;;;;6.93;6.40;;;;;;;20.31;39.78;95764.28;6162185;28;103874;-79
2022/10/23 06:11:24;;;;;;;6.50;6.00;;;;;;;20.31;40.07;95769.59;6163775;28;103113;-79
2022/10/23 06:14:27;;;;;;;7.10;6.60;;;;;;;20.31;39.97;95769.59;6163043;28;103044;-79
2022/10/23 06:17:30;;;;;;;7.60;7.00;;;;;;;20.31;40.02;95768.78;6155865;28;103606;-79
2022/10/23 06:20:36;;;;;;;6.23;5.80;;;;;;;20.35;39.81;95767.19;6163737;28;103347;-80
2022/10/23 06:23:42;;;;;;;6.90;6.40;;;;;;;20.36;39.84;95766.13;6163338;28;104350;-80
2022/10/23 06:26:46;;;;;;;7.40;6.80;;;;;;;20.36;39.81;95762.69;6163898;28;104019;-81
2022/10/23 06:29:49;;;;;;;6.70;6.20;;;;;;;20.34;40.14;95756.84;6155693;28;105248;-79
2022/10/23 06:32:54;;;;;;;7.30;6.70;;;;;;;20.24;39.89;95737.22;6163454;28;105007;-79
2022/10/23 06:35:57;;;;;;;7.20;6.70;;;;;;;20.34;40.46;95765.63;6162948;28;103017;-79
2022/10/23 06:39:02;;;;;;;6.57;6.07;;;;;;;20.38;40.03;95773.81;6157226;28;103453;-80
2022/10/23 06:42:06;;;;;;;6.10;5.70;;;;;;;20.36;40.15;95776.75;6161892;28;103559;-79
2022/10/23 06:45:09;;;;;;;6.20;5.70;;;;;;;20.51;39.70;95775.88;6163426;28;102706;-79
2022/10/23 06:48:12;;;;;;;6.13;5.73;;;;;;;20.71;39.38;95786.34;6163329;28;103327;-79
2022/10/23 06:51:17;;;;;;;6.00;5.60;;;;;;;20.92;39.06;95773.66;6155581;28;103268;-79
2022/10/23 06:54:22;;;;;;;6.33;5.90;;;;;;;21.09;38.83;95773.25;6163155;28;103401;-79
2022/10/23 06:57:25;;;;;;;7.00;6.50;;;;;;;21.15;39.02;95772.91;6163355;28;105004;-79
2022/10/23 07:00:28;;;;;;;6.17;5.77;;;;;;;21.26;38.54;95770.97;6162307;28;103638;-79
2022/10/23 07:03:33;;;;;;;6.50;6.10;;;;;;;21.32;38.88;95777.81;6154372;28;103659;-79
2022/10/23 07:06:36;;;;;;;6.50;6.00;;;;;;;21.39;38.92;95777.50;6162157;28;104248;-79
2022/10/23 07:09:41;;;;;;;6.63;6.13;;;;;;;21.44;38.38;95764.91;6161172;28;103619;-79
2022/10/23 07:12:46;;;;;;;6.70;6.20;;;;;;;21.52;38.80;95766.97;6159452;28;103351;-79
2022/10/23 07:15:49;;;;;;;6.20;5.80;;;;;;;21.59;38.76;95776.47;6159262;28;103758;-78
2022/10/23 07:18:58;;;;;;;5.73;5.23;;;;;;;21.64;38.89;95773.72;6163373;28;106603;-80
2022/10/23 07:22:01;;;;;;;5.80;5.30;;;;;;;21.71;38.24;95772.31;6163425;28;106216;-79
2022/10/23 07:25:07;;;;;;;5.87;5.47;;;;;;;21.77;38.64;95770.38;6156367;28;103389;-79
2022/10/23 07:28:10;;;;;;;6.37;5.87;;;;;;;21.82;38.64;95775.66;6163629;28;103588;-79
2022/10/23 07:31:14;;;;;;;6.50;6.00;;;;;;;21.87;38.34;95762.31;6162661;28;103101;-79
2022/10/23 07:34:20;;;;;;;6.70;6.20;;;;;;;21.96;38.25;95765.09;6162540;28;103180;-80
2022/10/23 07:37:24;;;;;;;5.80;5.40;;;;;;;22.00;38.53;95766.91;6153873;28;103541;-79
2022/10/23 07:40:28;;;;;;;6.30;5.80;;;;;;;21.99;38.45;95757.31;6162040;28;105783;-80
2022/10/23 07:43:32;;;;;;;5.63;5.23;;;;;;;22.07;38.22;95766.56;6163771;28;104065;-79
2022/10/23 07:46:36;;;;;;;6.37;5.97;;;;;;;22.10;38.47;95766.00;6163832;28;103084;-79
2022/10/23 07:49:39;;;;;;;6.17;5.67;;;;;;;22.14;37.91;95771.53;6161800;28;106470;-79
2022/10/23 07:52:42;;;;;;;6.13;5.63;;;;;;;22.20;38.03;95775.72;6167029;28;105280;-79
2022/10/23 07:55:53;;;;;;;5.77;5.37;;;;;;;22.19;38.32;95764.28;6166871;28;103404;-79
2022/10/23 07:58:57;;;;;;;6.57;6.07;;;;;;;22.20;38.19;95770.41;6158220;28;103051;-80
2022/10/23 08:02:00;;;;;;;6.03;5.53;;;;;;;22.25;38.04;95778.31;6166691;28;103347;-80
2022/10/23 08:05:04;;;;;;;6.07;5.57;;;;;;;22.27;38.17;95779.59;6166691;28;103052;-80
2022/10/23 08:08:07;;;;;;;5.70;5.30;;;;;;;22.31;38.53;95777.16;6166764;28;106406;-79
2022/10/23 08:11:14;;;;;;;5.50;5.10;;;;;;;22.31;38.35;95767.28;6158868;28;103258;-80
2022/10/23 08:14:17;;;;;;;5.30;4.90;;;;;;;22.33;37.96;95786.44;6166720;28;103318;-80
2022/10/23 08:17:20;;;;;;;5.63;5.23;;;;;;;22.36;38.20;95777.09;6166080;28;103136;-79
2022/10/23 08:20:29;;;;;;;5.50;5.10;;;;;;;22.34;38.58;95774.69;6165867;28;103247;-81
2022/10/23 08:23:32;;;;;;;5.63;5.13;;;;;;;22.36;38.69;95775.22;6158935;28;103369;-79
2022/10/23 08:26:37;;;;;;;5.60;5.20;;;;;;;22.29;38.29;95763.31;6166027;28;103859;-79
2022/10/23 08:29:40;;;;;;;6.00;5.60;;;;;;;22.32;38.54;95768.06;6165274;28;103738;-80
2022/10/23 08:32:43;;;;;;;5.37;4.97;;;;;;;22.34;38.31;95777.34;6158606;28;103273;-81
2022/10/23 08:35:47;;;;;;;5.97;5.47;;;;;;;22.35;38.87;95772.84;6164558;28;103562;-79
2022/10/23 08:38:52;;;;;;;5.57;5.17;;;;;;;22.30;38.71;95771.03;6166195;28;106239;-79
2022/10/23 08:41:57;;;;;;;5.43;5.03;;;;;;;22.31;38.59;95782.47;6164747;28;106213;-79
2022/10/23 08:45:06;;;;;;;5.47;5.07;;;;;;;22.30;38.47;95770.22;6157564;28;103283;-79
2022/10/23 08:48:18;;;;;;;5.60;5.20;;;;;;;22.30;38.75;95770.22;6165689;28;104496;-79
2022/10/23 08:51:25;;;;;;;5.30;4.90;;;;;;;22.28;38.95;95756.41;6165858;28;103478;-81
2022/10/23 08:54:34;;;;;;;5.77;5.37;;;;;;;22.23;38.75;95762.59;6165492;28;105513;-80
2022/10/23 08:57:43;;;;;;;5.10;4.80;;;;;;;22.24;38.74;95766.06;6158321;28;102845;-79
2022/10/23 09:00:49;;;;;;;5.20;4.80;;;;;;;22.19;39.01;95756.28;6164784;28;102998;-79
2022/10/23 09:03:52;;;;;;;5.00;4.70;;;;;;;22.20;38.91;95765.06;6164979;28;103985;-79
2022/10/23 09:07:05;;;;;;;5.10;4.80;;;;;;;22.17;39.16;95765.63;6157675;28;107206;-80
2022/10/23 09:10:29;;;;;;;4.83;4.53;;;;;;;22.16;38.73;95775.50;6165146;28;103500;-80
2022/10/23 09:13:58;;;;;;;5.50;5.10;;;;;;;22.15;38.95;95775.78;6164033;28;105240;-80
2022/10/23 09:17:14;;;;;;;4.83;4.53;;;;;;;22.15;39.25;95770.44;6162483;28;103146;-80
2022/10/23 09:20:21;;;;;;;5.47;5.07;;;;;;;22.17;39.23;95762.94;6157015;28;102968;-80
2022/10/23 09:23:24;;;;;;;5.10;4.70;;;;;;;22.20;38.68;95760.53;6164462;28;103107;-79
2022/10/23 09:26:27;;;;;;;4.60;4.30;;;;;;;22.18;38.92;95752.03;6165038;28;103037;-79
2022/10/23 09:29:34;;;;;;;4.97;4.60;;;;;;;22.22;38.67;95757.56;6157131;28;106046;-80
2022/10/23 09:32:38;;;;;;;5.17;4.87;;;;;;;22.22;39.17;95749.56;6164338;28;104192;-79
2022/10/23 09:35:53;;;;;;;5.00;4.60;;;;;;;22.23;38.91;95743.16;6165223;28;103552;-80
2022/10/23 09:38:58;;;;;;;4.90;4.60;;;;;;;22.23;38.84;95735.16;6164892;28;103423;-80
2022/10/23 09:42:14;;;;;;;4.50;4.20;;;;;;;22.26;38.63;95732.69;6157036;28;106306;-79
2022/10/23 09:45:28;;;;;;;6.20;4.90;;;;;;;22.26;39.00;95748.69;6163681;28;104643;-79
2022/10/23 09:48:32;;;;;;;4.83;4.47;;;;;;;22.28;38.88;95737.75;6164309;28;103043;-79
2022/10/23 09:51:35;;;;;;;4.97;4.67;;;;;;;22.28;38.86;95745.75;6160356;28;103392;-80
2022/10/23 09:54:45;;;;;;;5.00;4.70;;;;;;;22.31;38.95;95753.94;6160311;28;103395;-79
2022/10/23 09:57:49;;;;;;;5.00;4.60;;;;;;;22.29;39.03;95745.44;6164561;28;104974;-78
2022/10/23 10:00:54;;;;;;;4.67;4.37;;;;;;;22.28;38.80;95743.06;6164604;28;105373;-80
2022/10/23 10:03:57;;;;;;;4.67;4.37;;;;;;;22.27;39.08;95744.16;6157669;28;103339;-80
2022/10/23 10:07:02;;;;;;;4.27;3.87;;;;;;;22.24;39.52;95734.88;6160667;28;105227;-77
2022/10/23 10:10:13;;;;;;;4.20;3.90;;;;;;;22.15;40.21;95735.78;6157216;28;102926;-78
2022/10/23 10:13:36;;;;;;;5.87;4.80;;;;;;;22.08;40.07;95731.63;6161357;28;105109;-80
2022/10/23 10:16:51;;;;;;;5.70;5.10;;;;;;;22.08;41.12;95731.63;6152825;28;104366;-79
2022/10/23 10:20:17;;;;;;;4.73;4.20;;;;;;;22.02;40.23;95726.66;6154961;28;103027;-81
2022/10/23 10:23:32;;;;;;;4.70;4.27;;;;;;;21.96;40.82;95722.47;6152138;28;103231;-79
2022/10/23 10:26:43;;;;;;;6.77;4.57;;;;;;;21.99;41.09;95717.34;6155891;28;103995;-79
2022/10/23 10:30:01;;;;;;;8.17;4.73;;;;;;;21.98;41.87;95723.75;6163678;28;103228;-79
2022/10/23 10:33:17;;;;;;;4.03;3.67;;;;;;;21.94;42.52;95717.44;6163304;28;103527;-77
2022/10/23 10:36:40;;;;;;;6.97;3.93;;;;;;;21.93;43.13;95715.84;6146418;28;104063;-78
2022/10/23 10:39:52;;;;;;;5.40;4.00;;;;;;;21.94;44.75;95714.75;6154107;28;104982;-79
2022/10/23 10:43:20;;;;;;;8.27;4.53;;;;;;;21.95;44.91;95705.69;6162850;28;103176;-79
2022/10/23 10:46:31;;;;;;;6.43;3.80;;;;;;;21.95;44.46;95712.91;6163080;28;105180;-81
2022/10/23 10:49:40;;;;;;;8.67;4.07;;;;;;;21.93;44.40;95717.72;6155603;28;107646;-80
2022/10/23 10:52:53;;;;;;;8.47;4.40;;;;;;;21.86;43.87;95720.75;6163588;28;103074;-82
2022/10/23 10:56:00;;;;;;;6.47;3.63;;;;;;;21.82;43.62;95717.06;6163223;28;105165;-80
2022/10/23 10:59:10;;;;;;;8.90;3.87;;;;;;;21.80;43.24;95716.53;6163549;28;104746;-83
2022/10/23 11:02:25;;;;;;;9.70;3.77;;;;;;;21.84;44.30;95700.78;6143793;28;104460;-78
2022/10/23 11:05:49;;;;;;;8.83;3.27;;;;;;;21.74;43.17;95705.16;6148240;28;103649;-82
2022/10/23 11:08:52;;;;;;;7.50;3.60;;;;;;;21.82;44.14;95690.41;6145337;28;104436;-81
2022/10/23 11:12:19;;;;;;;10.80;3.50;;;;;;;21.89;44.43;95690.88;6140587;28;103123;-82
2022/10/23 11:15:28;;;;;;;4.60;3.40;;;;;;;21.87;44.15;95687.69;6168874;28;106314;-84
2022/10/23 11:18:33;;;;;;;4.87;4.10;;;;;;;21.86;43.39;95685.31;6159724;28;105082;-83
2022/10/23 11:21:43;;;;;;;5.20;3.80;;;;;;;21.88;42.91;95675.16;6156212;28;103340;-81
2022/10/23 11:25:08;;;;;;;5.50;3.60;;;;;;;21.88;43.15;95675.97;6142453;28;103149;-82
2022/10/23 11:28:26;;;;;;;2.83;2.63;;;;;;;21.83;42.42;95670.69;6157526;28;105493;-79
2022/10/23 11:31:39;;;;;;;3.50;3.20;;;;;;;21.79;42.23;95666.97;6162458;28;103598;-82
2022/10/23 11:35:11;;;;;;;5.97;3.10;;;;;;;21.79;42.55;95674.97;6161630;28;103722;-82
2022/10/23 11:38:20;;;;;;;3.80;3.20;;;;;;;21.82;42.50;95674.44;6161402;28;105373;-82
2022/10/23 11:41:26;;;;;;;3.30;2.97;;;;;;;21.83;42.22;95669.88;6167683;28;105193;-83
2022/10/23 11:44:41;;;;;;;3.27;2.90;;;;;;;21.84;41.98;95663.47;6164028;28;105453;-83
2022/10/23 11:47:45;;;;;;;3.47;3.07;;;;;;;21.79;42.42;95659.00;6148037;28;106692;-83
2022/10/23 11:50:53;;;;;;;4.60;3.23;;;;;;;21.74;42.45;95656.41;6157328;28;103281;-83
2022/10/23 11:54:25;;;;;;;3.60;3.30;;;;;;;21.70;42.33;95660.75;6155117;28;107064;-80
2022/10/23 11:57:29;;;;;;;3.10;2.80;;;;;;;21.72;42.03;95659.38;6167569;28;104372;-84
2022/10/23 12:00:35;;;;;;;4.80;3.50;;;;;;;21.72;42.03;95648.72;6144460;28;103622;-81
2022/10/23 12:03:50;;;;;;;3.07;2.83;;;;;;;21.71;42.33;95659.66;6153509;28;103522;-80
2022/10/23 12:06:58;;;;;;;3.63;2.67;;;;;;;21.70;42.20;95660.75;6143313;28;103120;-83
2022/10/23 12:10:06;;;;;;;3.20;2.87;;;;;;;21.66;42.41;95659.69;6156961;28;103206;-80
2022/10/23 12:13:29;;;;;;;3.40;3.10;;;;;;;21.58;41.92;95655.81;6164980;28;104737;-78
2022/10/23 12:16:36;;;;;;;3.70;3.40;;;;;;;21.54;42.04;95646.03;6142181;28;102935;-78
2022/10/23 12:19:47;;;;;;;3.23;2.80;;;;;;;21.55;41.98;95650.28;6146016;28;103081;-79
2022/10/23 12:23:03;;;;;;;3.67;3.33;;;;;;;21.51;41.68;95652.75;6155936;28;103297;-78
2022/10/23 12:26:42;;;;;;;3.20;2.97;;;;;;;21.50;41.47;95641.25;6140260;28;103443;-78
2022/10/23 12:30:02;;;;;;;2.93;2.60;;;;;;;21.47;41.69;95647.16;6151250;28;103340;-80
2022/10/23 12:33:15;;;;;;;2.90;2.70;;;;;;;21.46;41.79;95637.59;6146652;28;105828;-80
2022/10/23 12:36:51;;;;;;;2.70;2.50;;;;;;;21.44;41.58;95639.75;6145043;28;103310;-80
2022/10/23 12:39:56;;;;;;;3.90;3.00;;;;;;;21.43;41.59;95645.38;6149985;28;103508;-78
2022/10/23 12:43:01;;;;;;;3.40;3.13;;;;;;;21.40;42.03;95641.41;6165805;28;103142;-84
2022/10/23 12:46:18;;;;;;;3.60;3.30;;;;;;;21.41;42.20;95643.00;6151131;28;104169;-81
2022/10/23 12:49:23;;;;;;;5.10;3.57;;;;;;;21.48;42.12;95653.28;6156234;28;105333;-82
2022/10/23 12:52:27;;;;;;;4.87;3.77;;;;;;;21.48;42.36;95643.44;6152895;28;103139;-81
2022/10/23 12:55:46;;;;;;;4.20;3.90;;;;;;;21.48;42.59;95645.31;6162373;28;103428;-83
2022/10/23 12:58:54;;;;;;;4.70;4.00;;;;;;;21.44;42.72;95654.94;6160010;28;104151;-82
2022/10/23 13:01:57;;;;;;;5.90;4.83;;;;;;;21.43;43.12;95637.38;6158230;28;103448;-80
2022/10/23 13:05:03;;;;;;;5.33;4.50;;;;;;;21.39;43.29;95649.69;6166307;28;104857;-79
2022/10/23 13:08:09;;;;;;;4.77;4.23;;;;;;;21.37;42.79;95651.84;6155010;28;104006;-78
2022/10/23 13:11:16;;;;;;;6.63;3.93;;;;;;;21.41;43.21;95651.00;6158215;28;104260;-88
2022/10/23 13:14:36;;;;;;;4.83;4.43;;;;;;;21.50;43.60;95659.91;6162625;28;104080;-90
2022/10/23 13:17:45;;;;;;;4.40;3.83;;;;;;;21.61;43.28;95649.13;6162864;28;104659;-92
2022/10/23 13:20:58;;;;;;;7.50;4.07;;;;;;;21.62;43.78;95656.03;6155923;28;105392;-90
2022/10/23 13:24:01;;;;;;;5.30;4.23;;;;;;;21.67;44.30;95655.97;6171805;28;103577;-91
2022/10/23 13:27:25;;;;;;;4.17;3.43;;;;;;;21.68;43.86;95641.59;6173030;28;103702;-90
2022/10/23 13:30:33;;;;;;;4.87;4.37;;;;;;;21.70;43.98;95645.53;6146944;28;103693;-92
2022/10/23 13:33:38;;;;;;;3.90;3.60;;;;;;;21.72;44.21;95648.72;6144046;28;103595;-86
2022/10/23 13:36:52;;;;;;;5.20;4.20;;;;;;;21.73;44.30;95649.50;6145357;28;104315;-89
2022/10/23 13:40:03;;;;;;;4.63;3.57;;;;;;;21.71;44.17;95647.13;6155735;28;103308;-90
2022/10/23 13:43:14;;;;;;;4.20;3.80;;;;;;;21.76;44.03;95654.25;6161452;28;103664;-90
2022/10/23 13:46:20;;;;;;;4.50;3.90;;;;;;;21.74;43.90;95651.88;6155508;28;103031;-91
2022/10/23 13:49:23;;;;;;;4.00;3.60;;;;;;;21.72;44.51;95648.72;6170171;28;105233;-88
2022/10/23 13:52:26;;;;;;;4.53;3.90;;;;;;;21.75;44.26;95647.34;6169356;28;102974;-87
2022/10/23 13:55:29;;;;;;;3.40;3.10;;;;;;;21.75;44.23;95648.13;6162229;28;106306;-90
2022/10/23 13:58:32;;;;;;;4.10;3.33;;;;;;;21.76;44.24;95657.69;6168941;28;103336;-87
2022/10/23 14:01:37;;;;;;;3.70;3.17;;;;;;;21.69;43.93;95640.50;6165274;28;102645;-85
2022/10/23 14:04:40;;;;;;;3.43;3.13;;;;;;;21.74;44.16;95657.19;6166768;28;105248;-90
2022/10/23 14:07:43;;;;;;;4.03;3.60;;;;;;;21.75;44.23;95656.13;6162431;28;103552;-89
2022/10/23 14:10:47;;;;;;;3.53;3.27;;;;;;;21.78;44.42;95655.53;6167874;28;103356;-89
2022/10/23 14:13:51;;;;;;;4.27;3.50;;;;;;;21.77;44.48;95650.50;6161016;28;106323;-88
2022/10/23 14:16:56;;;;;;;3.63;3.00;;;;;;;21.76;44.63;95635.59;6151875;28;106150;-84
2022/10/23 14:19:59;;;;;;;4.70;2.67;;;;;;;21.68;44.76;95629.06;6177363;28;106146;-86
2022/10/23 14:23:07;;;;;;;3.50;3.10;;;;;;;21.76;44.57;95654.25;6171834;28;102952;-88
2022/10/23 14:26:13;;;;;;;4.53;2.77;;;;;;;21.69;44.60;95643.97;6161994;28;103482;-88
2022/10/23 14:29:16;;;;;;;3.40;3.00;;;;;;;21.77;44.76;95650.50;6158063;28;104528;-89
2022/10/23 14:32:27;;;;;;;3.87;3.20;;;;;;;21.73;44.59;95646.84;6149659;28;103263;-86